In Rescue
 
Open Full Screen Window  High Contrast Mode
Wind Gusting 00 knots
04
February 25, 2021 4:29 PM CST
Weather Information
Wind Direction
  240 °
Wind Speed
  04 kt (5 mph)
Wind Gust
  00 kt (0 mph)
Altimeter
30.05 in
Visibility
10 SM
Temperature
02° C
36° F
Dewpoint
-09° C
16° F
Humidity
44%
1hr Rain Fall
00.00 in.
24hr Rain Fall
00.00 in.
Sky Condition
Overcast @ 6,500 ft
VFR

METAR KBFW 252229Z AUTO 24004KT 10SM OVC065 02/M09 A3005 RMK AO2

FAA Disclaimer: The data displayed is for advisory purposes only and is not to be used for flight planning or operations.